Weather reports worldwide

Advertisment
Dunstaffnage, United Kingdom (99006): temperature & dewpoint: 12.01.2018 13:00:00 - 18.01.2018 13:00:00 (GMT)Dunstaffnage, United Kingdom (99006): temperature -20cm: 12.01.2018 13:00:00 - 18.01.2018 13:00:00 (GMT)Dunstaffnage, United Kingdom (99006): wind speed & gusts: 12.01.2018 13:00:00 - 18.01.2018 13:00:00 (GMT)Dunstaffnage, United Kingdom (99006): wind direction: 12.01.2018 13:00:00 - 18.01.2018 13:00:00 (GMT)Dunstaffnage, United Kingdom (99006): precipitation: 12.01.2018 13:00:00 - 18.01.2018 13:00:00 (GMT)
Date & Time tt [°C] td [°C] tt -20cm [°C] ff [km/h] ff [kn] fx [km/h] fx [kn] dd rr [mm]
18.01.2018 13:00:00 4,1 3,1 - 9 5 - - WSW 0,0
18.01.2018 12:00:00 2,4 1,9 - 5 3 - - NNE 0,0
18.01.2018 11:00:00 1,9 1,2 - 5 3 - - ESE 1,0
18.01.2018 10:00:00 3,0 1,7 - 15 8 - - WSW 0,6
18.01.2018 09:00:00 3,0 1,3 3,4 8 4 - - SW 0,0
18.01.2018 08:00:00 3,9 1,8 - 13 7 - - W 0,0
18.01.2018 07:00:00 2,7 1,8 - 4 2 - - ENE 0,0
18.01.2018 06:00:00 2,4 1,7 - 4 2 - - S 0,2
18.01.2018 05:00:00 2,2 1,2 - 5 3 - - SSW 0,2
18.01.2018 04:00:00 3,4 2,1 - 15 8 - - W 0,2
18.01.2018 03:00:00 3,4 2,3 - 15 8 - - W 0,2
18.01.2018 02:00:00 1,6 1,0 - 4 2 - - WSW 0,0
18.01.2018 01:00:00 1,9 1,0 - 4 2 - - ESE 0,0
18.01.2018 00:00:00 1,9 1,0 - 8 4 - - S 0,0
17.01.2018 23:00:00 1,9 1,1 - 13 7 - - SE 0,0
17.01.2018 22:00:00 2,7 1,5 - 15 8 - - SSE 0,6
17.01.2018 21:00:00 3,6 1,8 - 2 1 - - ENE 0,0
17.01.2018 20:00:00 4,3 1,8 - 9 5 - - SW 0,0
17.01.2018 19:00:00 3,8 1,4 - 9 5 - - SW 0,0
17.01.2018 18:00:00 3,4 1,0 - 13 7 - - SW 0,0
17.01.2018 17:00:00 3,7 1,7 - 22 12 57 31 WSW 0,0
17.01.2018 16:00:00 4,8 0,3 - 24 13 - - WSW 0,0
17.01.2018 15:00:00 3,6 1,0 - 24 13 55 30 W 0,2
17.01.2018 14:00:00 3,7 2,6 - 28 15 55 30 W 0,4
17.01.2018 13:00:00 4,4 0,5 - 41 22 57 31 W 0,0
17.01.2018 12:00:00 5,4 1,9 - 34 18 52 28 W 0,0
17.01.2018 11:00:00 4,5 2,0 - 22 12 54 29 W 0,2
17.01.2018 10:00:00 3,5 1,1 - 46 25 72 39 W 0,2
17.01.2018 09:00:00 5,0 1,0 3,4 39 21 63 34 W 0,0
17.01.2018 08:00:00 4,6 0,6 - 34 18 61 33 W 0,0
17.01.2018 07:00:00 3,6 1,4 - 28 15 74 40 W 0,0
17.01.2018 06:00:00 3,5 -0,6 - 31 17 72 39 WNW 1,0
17.01.2018 05:00:00 4,1 -1,0 - 37 20 68 37 WNW 0,0
17.01.2018 04:00:00 3,3 0,3 - 29 16 67 36 WNW 1,8
17.01.2018 03:00:00 2,9 1,0 - 50 27 72 39 W 0,6
17.01.2018 02:00:00 2,9 1,1 - 34 18 52 28 W 0,8
17.01.2018 01:00:00 2,8 0,1 - 22 12 - - W 0,4
17.01.2018 00:00:00 2,1 -0,8 - 22 12 - - W 0,0
16.01.2018 23:00:00 1,2 0,1 - 26 14 52 28 W 0,4
16.01.2018 22:00:00 1,9 -0,7 - 24 13 48 26 W 0,0
16.01.2018 21:00:00 1,0 -1,4 - 11 6 - - SSW 0,0
16.01.2018 20:00:00 1,1 -1,6 - 28 15 50 27 W 0,0
16.01.2018 19:00:00 1,0 -0,9 - 21 11 48 26 W 0,2
16.01.2018 18:00:00 1,8 -0,7 - 21 11 57 31 W 0,2
16.01.2018 17:00:00 1,6 -0,7 - 9 5 48 26 SSW 0,2
16.01.2018 16:00:00 2,5 -0,9 - 24 13 - - WSW 0,4
16.01.2018 15:00:00 0,7 0,3 - 22 12 54 29 W 0,2
16.01.2018 14:00:00 1,2 -0,2 - 9 5 67 36 WSW 0,0
16.01.2018 13:00:00 2,5 -0,3 - 26 14 61 33 W 0,0
16.01.2018 12:00:00 1,9 -0,2 - 22 12 76 41 W 0,2
16.01.2018 11:00:00 1,9 0,7 - 28 15 81 44 W 0,4
16.01.2018 10:00:00 2,1 -0,6 - 29 16 81 44 W 0,2
16.01.2018 09:00:00 3,8 0,6 4,0 28 15 50 27 W 0,0
16.01.2018 08:00:00 2,2 1,4 - 41 22 67 36 W 0,4
16.01.2018 07:00:00 1,7 0,9 - 18 10 - - WSW 0,6
16.01.2018 06:00:00 1,8 1,1 - 18 10 48 26 WSW 0,8
16.01.2018 05:00:00 1,7 0,6 - 28 15 68 37 W 1,0
16.01.2018 04:00:00 2,4 0,3 - 21 11 - - WSW 0,0
16.01.2018 03:00:00 2,6 0,9 - 26 14 48 26 WSW 0,2
16.01.2018 02:00:00 2,5 0,7 - 22 12 - - WSW 0,2
16.01.2018 01:00:00 2,4 0,0 - 15 8 55 30 WSW 0,0
16.01.2018 00:00:00 2,6 1,0 - 8 4 - - WSW 0,2
15.01.2018 23:00:00 1,6 0,5 - 5 3 - - SW 0,0
15.01.2018 22:00:00 1,9 0,9 - 16 9 63 34 WSW 1,4
15.01.2018 21:00:00 2,7 0,9 - 21 11 - - WNW 0,2
15.01.2018 20:00:00 3,9 0,8 - 24 13 - - W 0,0
15.01.2018 19:00:00 2,7 1,4 - 11 6 - - SW 0,2
15.01.2018 18:00:00 2,5 1,8 - 24 13 54 29 W 1,0
15.01.2018 17:00:00 3,2 2,1 - 9 5 - - WSW 0,4
15.01.2018 16:00:00 3,9 2,0 - 22 12 63 34 WNW 0,2
15.01.2018 15:00:00 4,3 2,6 - 16 9 59 32 WSW 0,2
15.01.2018 14:00:00 4,9 2,8 - 18 10 - - W 0,2
15.01.2018 13:00:00 4,5 2,6 - 29 16 50 27 W 0,2
15.01.2018 12:00:00 5,4 2,8 - 21 11 - - W 0,0
15.01.2018 11:00:00 5,1 3,7 - 4 2 - - SSW 0,0
15.01.2018 10:00:00 4,4 3,1 - 18 10 - - W 1,0
15.01.2018 09:00:00 4,5 2,8 4,7 24 13 - - WNW 0,4
15.01.2018 08:00:00 6,3 3,9 - 15 8 - - WSW 0,2
15.01.2018 07:00:00 5,7 3,8 - 18 10 - - WNW 0,2
15.01.2018 06:00:00 5,6 4,0 - 5 3 - - SSW 0,0
15.01.2018 05:00:00 6,2 4,3 - 21 11 - - W 0,0
15.01.2018 04:00:00 6,6 4,8 - 16 9 - - WSW 0,0
15.01.2018 03:00:00 7,2 5,3 - 13 7 - - WSW 0,0
15.01.2018 02:00:00 7,6 6,1 - 13 7 - - WSW -
15.01.2018 01:00:00 8,0 6,9 - 22 12 - - WSW 0,4
15.01.2018 00:00:00 8,3 7,8 - 16 9 - - SW 0,6
14.01.2018 23:00:00 8,2 7,4 - 18 10 - - SSW 1,2
14.01.2018 22:00:00 8,0 7,2 - 24 13 57 31 SSW 0,8
14.01.2018 21:00:00 7,5 6,5 - 29 16 59 32 S 1,4
14.01.2018 20:00:00 7,1 5,9 - 34 18 59 32 S 2,6
14.01.2018 19:00:00 6,6 5,2 - 34 18 63 34 S 1,8
14.01.2018 18:00:00 5,5 4,2 - 29 16 57 31 S 1,4
14.01.2018 17:00:00 5,1 3,7 - 28 15 57 31 S 4,0
14.01.2018 16:00:00 6,0 4,6 - 26 14 55 30 S 5,0
14.01.2018 15:00:00 7,6 4,5 - 24 13 57 31 SSW 0,0
14.01.2018 14:00:00 7,8 4,4 - 24 13 54 29 S 0,0
14.01.2018 13:00:00 7,5 4,1 - 22 12 48 26 S 0,0
14.01.2018 12:00:00 7,9 3,6 - 22 12 50 27 SSW 0,0
14.01.2018 11:00:00 7,9 4,0 - 24 13 46 25 S 0,0
14.01.2018 10:00:00 7,8 4,2 - 18 10 - - S 0,0
14.01.2018 09:00:00 7,9 3,5 3,7 21 11 46 25 S 0,0
14.01.2018 08:00:00 7,8 4,3 - 18 10 - - S 0,0
14.01.2018 07:00:00 7,5 3,4 - 13 7 - - S 0,0
14.01.2018 06:00:00 7,7 4,7 - 13 7 - - S 0,0
14.01.2018 05:00:00 7,9 5,8 - 13 7 - - S 0,0
14.01.2018 04:00:00 7,5 5,9 - 11 6 - - S 0,0
14.01.2018 03:00:00 6,9 5,5 - 8 4 - - SSE 0,0
14.01.2018 02:00:00 7,2 5,2 - 15 8 - - SSE 0,0
14.01.2018 01:00:00 7,0 5,1 - 13 7 - - SSE 0,0
14.01.2018 00:00:00 6,7 5,0 - 16 9 - - ESE 0,0
13.01.2018 23:00:00 6,1 4,4 - 18 10 - - E 0,0
13.01.2018 22:00:00 6,3 4,4 - 16 9 - - ESE 0,0
13.01.2018 21:00:00 6,2 3,5 - 13 7 - - ESE 0,0
13.01.2018 20:00:00 6,3 3,1 - 18 10 - - ESE 0,0
13.01.2018 19:00:00 6,2 2,9 - 16 9 - - ESE 0,0
13.01.2018 18:00:00 6,1 3,0 - 18 10 - - ESE 0,0
13.01.2018 17:00:00 5,6 3,1 - 21 11 - - ESE 0,2
13.01.2018 16:00:00 5,6 2,8 - 28 15 - - ESE 0,0
13.01.2018 15:00:00 5,6 2,7 - 28 15 - - ESE 0,0
13.01.2018 14:00:00 5,9 2,6 - 28 15 46 25 ESE 0,0
13.01.2018 13:00:00 6,1 2,5 - 15 8 - - ESE 0,0
13.01.2018 12:00:00 6,8 1,6 - 22 12 - - ESE 0,0
13.01.2018 11:00:00 6,6 2,1 - 26 14 46 25 ESE 0,0
13.01.2018 10:00:00 6,6 1,8 - 28 15 - - ESE 0,0
13.01.2018 09:00:00 6,5 2,2 3,0 16 9 - - ESE 0,0
13.01.2018 08:00:00 6,4 1,9 - 11 6 - - SE 0,0
13.01.2018 07:00:00 6,4 2,1 - 26 14 - - ESE 0,0
13.01.2018 06:00:00 6,3 1,9 - 13 7 48 26 SE 0,0
13.01.2018 05:00:00 6,6 1,9 - 24 13 - - ESE 0,0
13.01.2018 04:00:00 6,6 1,6 - 18 10 57 31 ESE 0,0
13.01.2018 03:00:00 6,6 1,6 - 26 14 48 26 ESE 0,0
13.01.2018 02:00:00 6,6 1,5 - 15 8 46 25 ESE 0,0
13.01.2018 01:00:00 6,4 1,4 - 31 17 48 26 ESE 0,0
13.01.2018 00:00:00 6,4 1,1 - 24 13 - - ESE 0,0
12.01.2018 23:00:00 6,5 1,0 - 18 10 - - ESE 0,0
12.01.2018 22:00:00 6,3 1,3 - 21 11 48 26 ESE 0,0
12.01.2018 21:00:00 6,5 1,2 - 29 16 54 29 ESE 0,0
12.01.2018 20:00:00 6,6 1,3 - 18 10 - - ESE 0,0
12.01.2018 19:00:00 6,6 1,5 - 15 8 50 27 E 0,0
12.01.2018 18:00:00 6,6 1,5 - 15 8 55 30 ESE 0,0
12.01.2018 17:00:00 7,2 1,6 - 39 21 55 30 ESE 0,0
12.01.2018 16:00:00 6,9 2,1 - 26 14 54 29 ESE 0,0
12.01.2018 15:00:00 7,2 2,2 - 21 11 - - ESE 0,0
12.01.2018 14:00:00 7,1 2,4 - 13 7 - - SE 0,0
12.01.2018 13:00:00 - - - - - - - - 0,0

tt = temperature
td = dewpoint
tt -20cm = temperature -20cm
ff = wind speed
fx = gusts
dd = wind direction
rr = precipitation

Next stations